createdAt,value
2023-04-23T00:00:12.534Z,14.70
2023-04-23T00:03:15.488Z,15.60
2023-04-23T00:06:20.216Z,14.90
2023-04-23T00:09:22.926Z,15.10
2023-04-23T00:12:25.208Z,15.00
2023-04-23T00:15:21.319Z,15.50
2023-04-23T00:18:01.370Z,16.80
2023-04-23T00:20:54.052Z,17.70
2023-04-23T00:23:47.290Z,16.00
2023-04-23T00:26:39.999Z,15.90
2023-04-23T00:29:26.168Z,15.40
2023-04-23T00:32:19.080Z,16.80
2023-04-23T00:35:14.205Z,18.00
2023-04-23T00:38:09.998Z,17.40
2023-04-23T00:41:02.706Z,16.60
2023-04-23T00:43:59.557Z,16.10
2023-04-23T00:46:54.254Z,15.90
2023-04-23T00:49:47.367Z,15.00
2023-04-23T00:52:41.119Z,15.80
2023-04-23T00:55:34.739Z,15.20
2023-04-23T00:58:27.769Z,15.20
2023-04-23T01:01:24.066Z,16.30
2023-04-23T01:04:19.125Z,16.10
2023-04-23T01:07:13.282Z,15.10
2023-04-23T01:10:08.075Z,16.20
2023-04-23T01:13:03.093Z,15.20
2023-04-23T01:15:56.452Z,15.80
2023-04-23T01:18:49.635Z,15.00
2023-04-23T01:21:43.516Z,15.30
2023-04-23T01:24:40.122Z,15.40
2023-04-23T01:27:36.478Z,15.60
2023-04-23T01:30:31.872Z,14.10
2023-04-23T01:33:27.616Z,14.00
2023-04-23T01:36:20.935Z,14.70
2023-04-23T01:39:13.572Z,14.00
2023-04-23T01:42:03.462Z,13.70
2023-04-23T01:44:49.856Z,13.70
2023-04-23T01:47:43.236Z,13.60
2023-04-23T01:50:37.297Z,13.60
2023-04-23T01:53:29.757Z,14.60
2023-04-23T01:56:26.771Z,13.00
2023-04-23T01:59:19.621Z,13.10
2023-04-23T02:02:14.041Z,13.00
2023-04-23T02:05:11.437Z,12.80
2023-04-23T02:08:08.745Z,12.50
2023-04-23T02:11:02.210Z,13.20
2023-04-23T02:13:57.110Z,12.30
2023-04-23T02:16:49.813Z,12.40
2023-04-23T02:19:35.902Z,11.70
2023-04-23T02:22:29.615Z,11.60
2023-04-23T02:25:22.479Z,12.00
2023-04-23T02:28:15.199Z,12.60
2023-04-23T02:31:08.737Z,12.00
2023-04-23T02:34:03.695Z,12.10
2023-04-23T02:36:58.086Z,11.30
2023-04-23T02:39:51.764Z,12.30
2023-04-23T02:42:45.391Z,11.90
2023-04-23T02:45:40.436Z,11.40
2023-04-23T02:48:34.236Z,11.30
2023-04-23T02:51:26.765Z,11.00
2023-04-23T02:54:21.766Z,12.10
2023-04-23T02:57:04.412Z,11.40
2023-04-23T02:59:57.485Z,11.50
2023-04-23T03:02:50.068Z,11.00
2023-04-23T03:05:44.270Z,10.60
2023-04-23T03:08:47.608Z,11.40
2023-04-23T03:11:41.390Z,11.50
2023-04-23T03:14:33.844Z,11.70
2023-04-23T03:17:27.952Z,12.20
2023-04-23T03:20:20.571Z,10.60
2023-04-23T03:23:13.010Z,10.80
2023-04-23T03:26:05.906Z,11.30
2023-04-23T03:28:58.355Z,10.70
2023-04-23T03:31:54.363Z,10.60
2023-04-23T03:34:47.248Z,11.50
2023-04-23T03:37:41.372Z,10.50
2023-04-23T03:40:27.080Z,11.00
2023-04-23T03:43:23.601Z,11.00
2023-04-23T03:46:33.146Z,10.40
2023-04-23T03:49:28.841Z,10.80
2023-04-23T03:52:22.390Z,11.20
2023-04-23T03:55:15.588Z,10.70
2023-04-23T03:58:09.451Z,10.40
2023-04-23T04:01:00.964Z,10.70
2023-04-23T04:03:56.687Z,10.30
2023-04-23T04:06:51.519Z,10.50
2023-04-23T04:09:44.781Z,10.80
2023-04-23T04:12:32.466Z,10.80
2023-04-23T04:15:27.113Z,10.90
2023-04-23T04:18:12.596Z,10.10
2023-04-23T04:20:55.981Z,9.50
2023-04-23T04:23:40.629Z,9.90
2023-04-23T04:26:32.606Z,10.40
2023-04-23T04:29:25.047Z,9.00
2023-04-23T04:32:22.542Z,10.20
2023-04-23T04:35:16.904Z,10.30
2023-04-23T04:38:14.155Z,9.80
2023-04-23T04:41:09.480Z,9.60
2023-04-23T04:44:04.782Z,10.50
2023-04-23T04:47:13.718Z,10.70
2023-04-23T04:50:11.301Z,11.30
2023-04-23T04:53:09.615Z,14.30
2023-04-23T04:55:55.413Z,17.20
2023-04-23T04:58:48.320Z,15.70
2023-04-23T05:01:44.942Z,14.30
2023-04-23T05:04:38.945Z,12.70
2023-04-23T05:07:32.493Z,13.00
2023-04-23T05:10:27.662Z,12.00
2023-04-23T05:13:04.150Z,13.10
2023-04-23T05:15:57.125Z,13.30
2023-04-23T05:18:50.597Z,12.80
2023-04-23T05:21:54.098Z,12.00
2023-04-23T05:24:47.807Z,12.00
2023-04-23T05:27:43.907Z,11.30
2023-04-23T05:30:40.134Z,10.90
2023-04-23T05:33:39.101Z,11.40
2023-04-23T05:36:37.404Z,11.70
2023-04-23T05:40:30.344Z,11.60
2023-04-23T05:42:46.225Z,11.50
2023-04-23T05:45:43.372Z,10.90
2023-04-23T05:48:40.353Z,11.30
2023-04-23T05:51:28.608Z,11.00
2023-04-23T05:54:21.137Z,10.90
2023-04-23T05:57:34.572Z,10.50
2023-04-23T06:00:28.048Z,10.70
2023-04-23T06:03:25.830Z,11.20
2023-04-23T06:06:26.454Z,10.30
2023-04-23T06:09:26.267Z,10.00
2023-04-23T06:12:30.827Z,8.80
2023-04-23T06:15:27.243Z,9.30
2023-04-23T06:18:26.256Z,8.60
2023-04-23T06:21:19.729Z,7.60
2023-04-23T06:24:12.392Z,8.10
2023-04-23T06:27:05.702Z,7.00
2023-04-23T06:29:58.308Z,6.20
2023-04-23T06:32:51.685Z,5.80
2023-04-23T06:35:34.740Z,7.10
2023-04-23T06:38:27.224Z,6.60
2023-04-23T06:41:24.323Z,5.50
2023-04-23T06:44:16.995Z,8.00
2023-04-23T06:47:15.910Z,8.00
2023-04-23T06:50:10.771Z,7.80
2023-04-23T06:53:04.194Z,7.90
2023-04-23T06:55:56.903Z,7.90
2023-04-23T06:58:49.637Z,8.00
2023-04-23T07:01:46.387Z,7.30
2023-04-23T07:04:41.997Z,6.70
2023-04-23T07:07:37.700Z,7.40
2023-04-23T07:10:22.333Z,7.90
2023-04-23T07:13:18.946Z,7.00
2023-04-23T07:16:14.171Z,7.10
2023-04-23T07:19:06.903Z,7.30
2023-04-23T07:21:59.972Z,6.90
2023-04-23T07:24:51.523Z,6.40
2023-04-23T07:27:35.149Z,6.30
2023-04-23T07:30:29.213Z,6.00
2023-04-23T07:33:23.088Z,6.30
2023-04-23T07:36:18.327Z,7.00
2023-04-23T07:39:13.613Z,5.20
2023-04-23T07:42:06.708Z,5.70
2023-04-23T07:44:59.233Z,4.40
2023-04-23T07:47:53.109Z,5.20
2023-04-23T07:50:49.157Z,4.80
2023-04-23T07:53:43.097Z,5.00
2023-04-23T07:56:39.276Z,4.70
2023-04-23T07:59:33.106Z,4.80
2023-04-23T08:02:27.811Z,4.80
2023-04-23T08:05:20.885Z,3.50
2023-04-23T08:08:15.306Z,4.10
2023-04-23T08:11:09.952Z,4.40
2023-04-23T08:13:55.231Z,4.10
2023-04-23T08:16:48.179Z,4.20
2023-04-23T08:19:41.297Z,4.20
2023-04-23T08:22:34.508Z,3.90
2023-04-23T08:25:52.331Z,3.80
2023-04-23T08:28:45.186Z,3.40
2023-04-23T08:31:41.265Z,3.40
2023-04-23T08:34:35.787Z,3.80
2023-04-23T08:37:31.531Z,3.90
2023-04-23T08:40:25.409Z,3.80
2023-04-23T08:43:16.865Z,3.70
2023-04-23T08:46:16.304Z,3.60
2023-04-23T08:49:15.249Z,3.80
2023-04-23T08:52:17.230Z,3.50
2023-04-23T08:55:16.081Z,3.10
2023-04-23T08:58:10.473Z,3.50
2023-04-23T09:01:04.821Z,3.70
2023-04-23T09:03:58.244Z,3.30
2023-04-23T09:06:50.991Z,3.80
2023-04-23T09:09:44.577Z,3.00
2023-04-23T09:12:28.703Z,3.40
2023-04-23T09:15:21.380Z,3.10
2023-04-23T09:18:15.283Z,3.20
2023-04-23T09:21:08.538Z,3.70
2023-04-23T09:24:06.386Z,3.40
2023-04-23T09:27:00.862Z,2.70
2023-04-23T09:29:59.762Z,2.90
2023-04-23T09:32:53.749Z,3.10
2023-04-23T09:35:30.925Z,4.00
2023-04-23T09:38:24.236Z,5.00
2023-04-23T09:41:28.172Z,3.40
2023-04-23T09:44:20.841Z,3.80
2023-04-23T09:47:15.956Z,4.10
2023-04-23T09:50:12.537Z,4.00
2023-04-23T09:53:06.903Z,3.40
2023-04-23T09:55:59.649Z,3.10
2023-04-23T09:58:52.734Z,2.80
2023-04-23T10:01:48.038Z,2.80
2023-04-23T10:04:42.625Z,3.20
2023-04-23T10:07:38.924Z,2.90
2023-04-23T10:10:32.208Z,3.00
2023-04-23T10:13:28.344Z,2.80
2023-04-23T10:16:25.473Z,2.90
2023-04-23T10:19:26.014Z,2.90
2023-04-23T10:22:21.453Z,2.30
2023-04-23T10:25:16.353Z,3.20
2023-04-23T10:28:13.383Z,3.10
2023-04-23T10:31:08.079Z,3.00
2023-04-23T10:34:06.917Z,3.00
2023-04-23T10:37:01.490Z,2.90
2023-04-23T10:40:01.468Z,3.20
2023-04-23T10:42:55.820Z,3.30
2023-04-23T10:45:50.979Z,2.70
2023-04-23T10:49:09.930Z,2.60
2023-04-23T10:52:19.607Z,2.90
2023-04-23T10:55:21.680Z,2.80
2023-04-23T10:58:15.052Z,2.70
2023-04-23T11:01:09.370Z,2.70
2023-04-23T11:04:30.049Z,2.70
2023-04-23T11:07:34.081Z,2.50
2023-04-23T11:10:27.910Z,2.80
2023-04-23T11:13:31.503Z,2.70
2023-04-23T11:16:46.380Z,2.80
2023-04-23T11:20:06.769Z,3.10
2023-04-23T11:24:10.567Z,2.90
2023-04-23T11:26:22.486Z,2.60
2023-04-23T11:29:17.230Z,2.90
2023-04-23T11:32:13.136Z,2.80
2023-04-23T11:35:28.791Z,3.00
2023-04-23T11:38:23.587Z,2.90
2023-04-23T11:41:34.415Z,3.00
2023-04-23T11:44:42.534Z,2.80
2023-04-23T11:47:41.553Z,2.90
2023-04-23T11:50:37.546Z,2.70
2023-04-23T11:53:35.433Z,2.90
2023-04-23T11:56:35.544Z,2.60
2023-04-23T11:59:56.153Z,2.90
2023-04-23T12:02:59.680Z,2.80
2023-04-23T12:06:07.918Z,3.50
2023-04-23T12:09:03.738Z,3.20
2023-04-23T12:11:58.484Z,2.80
2023-04-23T12:15:09.671Z,3.30
2023-04-23T12:18:13.270Z,2.80
2023-04-23T12:21:10.224Z,2.90
2023-04-23T12:24:06.914Z,2.90
2023-04-23T12:26:54.871Z,2.80
2023-04-23T12:29:48.758Z,3.00
2023-04-23T12:32:49.316Z,3.00
2023-04-23T12:35:54.244Z,3.00
2023-04-23T12:38:47.414Z,3.20
2023-04-23T12:41:40.245Z,3.00
2023-04-23T12:44:39.121Z,3.10
2023-04-23T12:47:52.407Z,2.80
2023-04-23T12:50:47.144Z,2.70
2023-04-23T12:53:44.558Z,2.90
2023-04-23T12:56:41.563Z,3.20
2023-04-23T12:59:38.153Z,3.10
2023-04-23T13:02:31.994Z,3.10
2023-04-23T13:05:25.342Z,3.00
2023-04-23T13:08:18.088Z,2.70
2023-04-23T13:11:11.543Z,3.00
2023-04-23T13:14:09.224Z,4.70
2023-04-23T13:17:10.734Z,3.30
2023-04-23T13:20:08.032Z,3.10
2023-04-23T13:23:01.999Z,3.20
2023-04-23T13:25:54.368Z,3.20
2023-04-23T13:28:48.220Z,3.20
2023-04-23T13:31:38.762Z,3.10
2023-04-23T13:35:21.328Z,3.20
2023-04-23T13:37:42.495Z,3.00
2023-04-23T13:40:46.804Z,2.80
2023-04-23T13:43:42.421Z,3.20
2023-04-23T13:46:45.066Z,3.10
2023-04-23T13:49:42.157Z,3.30
2023-04-23T13:53:01.056Z,3.50
2023-04-23T13:55:48.776Z,3.50
2023-04-23T13:58:46.407Z,3.10
2023-04-23T14:01:47.309Z,2.80
2023-04-23T14:04:41.719Z,3.10
2023-04-23T14:07:39.709Z,3.30
2023-04-23T14:10:32.598Z,3.70
2023-04-23T14:13:26.164Z,3.10
2023-04-23T14:16:20.576Z,3.50
2023-04-23T14:19:17.665Z,3.20
2023-04-23T14:22:11.027Z,3.60
2023-04-23T14:25:10.617Z,3.30
2023-04-23T14:28:17.863Z,3.80
2023-04-23T14:31:12.078Z,3.20
2023-04-23T14:34:06.521Z,3.20
2023-04-23T14:36:54.467Z,3.30
2023-04-23T14:39:48.640Z,3.20
2023-04-23T14:42:31.791Z,3.80
2023-04-23T14:45:26.425Z,3.10
2023-04-23T14:48:21.353Z,3.90
2023-04-23T14:51:14.004Z,3.20
2023-04-23T14:54:07.369Z,3.50
2023-04-23T14:56:59.726Z,3.10
2023-04-23T14:59:56.252Z,3.80
2023-04-23T15:02:46.479Z,3.60
2023-04-23T15:05:45.042Z,4.00
2023-04-23T15:08:34.960Z,3.90
2023-04-23T15:11:34.123Z,3.50
2023-04-23T15:14:34.696Z,3.30
2023-04-23T15:17:32.116Z,3.60
2023-04-23T15:21:19.427Z,3.40
2023-04-23T15:23:43.079Z,3.50
2023-04-23T15:26:36.499Z,3.50
2023-04-23T15:29:32.609Z,3.70
2023-04-23T15:32:27.898Z,3.60
2023-04-23T15:35:21.728Z,3.80
2023-04-23T15:38:19.781Z,4.00
2023-04-23T15:41:14.438Z,3.90
2023-04-23T15:44:15.282Z,3.90
2023-04-23T15:47:08.524Z,3.20
2023-04-23T15:50:07.827Z,3.30
2023-04-23T15:53:03.342Z,3.50
2023-04-23T15:56:12.912Z,3.50
2023-04-23T15:59:32.171Z,3.80
2023-04-23T16:02:35.426Z,3.20
2023-04-23T16:05:31.842Z,3.40
2023-04-23T16:08:25.007Z,4.00
2023-04-23T16:11:17.588Z,3.80
2023-04-23T16:14:13.643Z,3.80
2023-04-23T16:17:06.354Z,4.10
2023-04-23T16:21:50.238Z,3.50
2023-04-23T16:25:32.302Z,3.30
2023-04-23T16:28:00.113Z,3.30
2023-04-23T16:30:55.231Z,3.20
2023-04-23T16:33:47.874Z,3.90
2023-04-23T16:40:09.269Z,3.20
2023-04-23T16:43:01.817Z,3.80
2023-04-23T16:45:54.465Z,3.90
2023-04-23T16:49:02.060Z,3.60
2023-04-23T16:51:59.075Z,4.10
2023-04-23T16:54:53.110Z,3.40
2023-04-23T16:57:58.381Z,3.80
2023-04-23T17:00:48.661Z,3.20
2023-04-23T17:03:36.873Z,3.90
2023-04-23T17:06:31.830Z,4.00
2023-04-23T17:09:24.771Z,4.20
2023-04-23T17:12:24.484Z,4.10
2023-04-23T17:15:18.008Z,4.20
2023-04-23T17:18:31.786Z,4.20
2023-04-23T17:21:24.508Z,3.90
2023-04-23T17:24:08.430Z,4.40
2023-04-23T17:27:02.796Z,4.30
2023-04-23T17:29:56.080Z,4.30
2023-04-23T17:32:48.633Z,4.30
2023-04-23T17:35:42.326Z,4.10
2023-04-23T17:38:38.617Z,4.40
2023-04-23T17:41:51.482Z,4.10
2023-04-23T17:44:37.199Z,3.80
2023-04-23T17:47:30.115Z,4.10
2023-04-23T17:50:22.905Z,4.50
2023-04-23T17:53:48.751Z,3.80
2023-04-23T17:56:45.335Z,4.50
2023-04-23T17:59:43.623Z,4.70
2023-04-23T18:02:40.788Z,4.60
2023-04-23T18:05:34.033Z,4.60
2023-04-23T18:08:27.474Z,4.90
2023-04-23T18:11:21.279Z,4.40
2023-04-23T18:14:14.989Z,4.50
2023-04-23T18:17:06.523Z,4.70
2023-04-23T18:20:02.413Z,4.60
2023-04-23T18:26:27.070Z,5.40
2023-04-23T18:29:19.989Z,5.50
2023-04-23T18:32:20.988Z,6.00
2023-04-23T18:35:20.843Z,5.10
2023-04-23T18:38:32.748Z,5.30
2023-04-23T18:41:30.453Z,4.60
2023-04-23T18:44:24.376Z,4.60
2023-04-23T18:47:21.600Z,4.90
2023-04-23T18:50:50.067Z,4.80
2023-04-23T18:53:44.207Z,4.70
2023-04-23T18:57:37.836Z,5.00
2023-04-23T18:59:52.056Z,4.80
2023-04-23T19:02:48.733Z,4.70
2023-04-23T19:05:46.025Z,4.30
2023-04-23T19:08:41.548Z,5.10
2023-04-23T19:11:35.562Z,4.40
2023-04-23T19:14:28.166Z,4.20
2023-04-23T19:17:21.399Z,4.00
2023-04-23T19:20:15.948Z,6.20
2023-04-23T19:23:10.038Z,3.80
2023-04-23T19:26:03.944Z,3.50
2023-04-23T19:28:57.454Z,3.40
2023-04-23T19:31:50.822Z,4.00
2023-04-23T19:34:45.984Z,3.90
2023-04-23T19:37:39.217Z,3.60
2023-04-23T19:40:32.780Z,3.50
2023-04-23T19:43:25.647Z,3.60
2023-04-23T19:46:22.041Z,3.60
2023-04-23T19:49:17.256Z,3.70
2023-04-23T19:52:45.312Z,3.30
2023-04-23T19:55:49.911Z,3.40
2023-04-23T19:58:42.764Z,3.50
2023-04-23T20:01:39.099Z,4.20
2023-04-23T20:04:31.626Z,3.90
2023-04-23T20:07:25.547Z,4.30
2023-04-23T20:09:58.132Z,4.40
2023-04-23T20:12:50.763Z,4.40
2023-04-23T20:15:44.725Z,4.50
2023-04-23T20:18:39.292Z,4.30
2023-04-23T20:21:33.249Z,4.40
2023-04-23T20:24:27.365Z,4.30
2023-04-23T20:27:19.962Z,4.10
2023-04-23T20:30:16.670Z,4.30
2023-04-23T20:33:11.184Z,4.60
2023-04-23T20:36:32.664Z,4.40
2023-04-23T20:39:26.024Z,4.60
2023-04-23T20:42:18.454Z,5.50
2023-04-23T20:45:14.592Z,4.70
2023-04-23T20:48:08.258Z,4.60
2023-04-23T20:51:02.780Z,4.60
2023-04-23T20:53:57.716Z,4.50
2023-04-23T20:56:54.419Z,4.90
2023-04-23T20:59:47.919Z,4.80
2023-04-23T21:02:42.023Z,5.00
2023-04-23T21:05:45.043Z,5.00
2023-04-23T21:08:41.508Z,5.30
2023-04-23T21:11:38.020Z,4.80
2023-04-23T21:14:31.994Z,5.50
2023-04-23T21:17:24.806Z,5.40
2023-04-23T21:20:14.452Z,5.00
2023-04-23T21:23:09.022Z,4.60
2023-04-23T21:26:01.597Z,5.50
2023-04-23T21:28:44.096Z,5.30
2023-04-23T21:31:49.177Z,5.20
2023-04-23T21:34:44.366Z,5.10
2023-04-23T21:37:38.340Z,4.70
2023-04-23T21:40:34.196Z,5.00
2023-04-23T21:43:26.644Z,5.80
2023-04-23T21:46:19.141Z,5.20
2023-04-23T21:49:13.253Z,5.00
2023-04-23T21:52:06.815Z,5.40
2023-04-23T21:54:59.576Z,5.50
2023-04-23T21:57:52.228Z,5.10
2023-04-23T22:00:39.432Z,5.40
2023-04-23T22:03:38.521Z,5.00
2023-04-23T22:06:34.735Z,5.20
2023-04-23T22:09:27.425Z,5.50
2023-04-23T22:12:20.560Z,5.70
2023-04-23T22:15:15.370Z,5.80
2023-04-23T22:18:08.818Z,4.80
2023-04-23T22:21:01.833Z,5.70
2023-04-23T22:23:54.837Z,5.40
2023-04-23T22:26:47.685Z,4.70
2023-04-23T22:29:41.364Z,4.60
2023-04-23T22:32:34.059Z,5.70
2023-04-23T22:35:27.412Z,5.40
2023-04-23T22:38:20.002Z,5.60
2023-04-23T22:41:15.964Z,6.30
2023-04-23T22:43:58.380Z,5.40
2023-04-23T22:46:51.242Z,5.20
2023-04-23T22:49:46.802Z,5.50
2023-04-23T22:52:39.539Z,6.40
2023-04-23T22:55:32.498Z,6.00
2023-04-23T22:58:25.074Z,5.90
2023-04-23T23:01:20.560Z,6.00
2023-04-23T23:04:13.908Z,5.80
2023-04-23T23:07:07.253Z,6.20
2023-04-23T23:10:00.139Z,6.40
2023-04-23T23:12:54.704Z,5.50
2023-04-23T23:15:50.301Z,5.80
2023-04-23T23:18:43.889Z,6.00
2023-04-23T23:21:36.516Z,5.50
2023-04-23T23:24:29.004Z,5.60
2023-04-23T23:27:21.778Z,6.30
2023-04-23T23:30:09.812Z,6.70
2023-04-23T23:33:02.438Z,6.50
2023-04-23T23:36:28.059Z,5.80
2023-04-23T23:39:22.081Z,5.80
2023-04-23T23:42:16.417Z,5.70
2023-04-23T23:45:12.059Z,5.80
2023-04-23T23:48:06.008Z,5.80
2023-04-23T23:50:58.753Z,6.20
2023-04-23T23:53:51.156Z,5.40
2023-04-23T23:56:37.304Z,5.30
2023-04-23T23:59:29.686Z,6.10
